createdAt,value
2022-08-17T00:00:42.830Z,19.86
2022-08-17T00:03:47.468Z,19.86
2022-08-17T00:06:49.772Z,19.85
2022-08-17T00:09:51.657Z,19.85
2022-08-17T00:12:53.883Z,19.83
2022-08-17T00:16:02.859Z,19.82
2022-08-17T00:19:08.776Z,19.76
2022-08-17T00:22:35.027Z,19.71
2022-08-17T00:25:32.715Z,19.64
2022-08-17T00:28:35.342Z,19.56
2022-08-17T00:31:38.637Z,19.49
2022-08-17T00:34:40.373Z,19.41
2022-08-17T00:37:42.419Z,19.39
2022-08-17T00:40:59.271Z,19.35
2022-08-17T00:44:04.306Z,19.30
2022-08-17T00:47:06.264Z,19.26
2022-08-17T00:50:14.107Z,19.26
2022-08-17T00:53:16.767Z,19.24
2022-08-17T00:56:26.272Z,19.17
2022-08-17T00:59:35.214Z,19.14
2022-08-17T01:02:42.310Z,19.10
2022-08-17T01:05:46.297Z,19.10
2022-08-17T01:08:49.969Z,19.10
2022-08-17T01:11:59.741Z,19.09
2022-08-17T01:15:01.544Z,19.06
2022-08-17T01:18:05.609Z,19.06
2022-08-17T01:21:14.233Z,19.04
2022-08-17T01:24:17.081Z,19.00
2022-08-17T01:27:21.184Z,18.96
2022-08-17T01:30:59.004Z,18.97
2022-08-17T01:33:45.228Z,18.91
2022-08-17T01:36:49.475Z,18.81
2022-08-17T01:39:56.129Z,18.69
2022-08-17T01:43:07.461Z,18.64
2022-08-17T01:46:09.721Z,18.59
2022-08-17T01:49:12.916Z,18.57
2022-08-17T01:52:15.552Z,18.51
2022-08-17T01:55:27.220Z,18.48
2022-08-17T01:58:29.595Z,18.48
2022-08-17T02:01:33.793Z,18.48
2022-08-17T02:04:35.611Z,18.47
2022-08-17T02:07:55.970Z,18.45
2022-08-17T02:10:59.331Z,18.43
2022-08-17T02:14:04.074Z,18.42
2022-08-17T02:17:05.931Z,18.46
2022-08-17T02:20:09.771Z,18.46
2022-08-17T02:23:13.092Z,18.42
2022-08-17T02:26:24.055Z,18.38
2022-08-17T02:29:28.481Z,18.34
2022-08-17T02:32:30.392Z,18.29
2022-08-17T02:35:32.339Z,18.17
2022-08-17T02:38:34.314Z,18.15
2022-08-17T02:41:37.327Z,18.07
2022-08-17T02:44:40.257Z,18.02
2022-08-17T02:47:44.349Z,17.97
2022-08-17T02:50:46.340Z,17.94
2022-08-17T02:53:48.230Z,17.90
2022-08-17T02:56:50.063Z,17.86
2022-08-17T02:59:51.755Z,17.81
2022-08-17T03:02:54.073Z,17.76
2022-08-17T03:05:58.063Z,17.73
2022-08-17T03:08:59.760Z,17.70
2022-08-17T03:12:17.993Z,17.66
2022-08-17T03:15:24.889Z,17.67
2022-08-17T03:18:28.077Z,17.66
2022-08-17T03:21:30.085Z,17.64
2022-08-17T03:24:31.800Z,17.60
2022-08-17T03:27:33.706Z,17.58
2022-08-17T03:30:36.805Z,17.59
2022-08-17T03:33:38.502Z,17.58
2022-08-17T03:36:40.338Z,17.56
2022-08-17T03:39:42.883Z,17.55
2022-08-17T03:42:45.007Z,17.55
2022-08-17T03:46:05.837Z,17.54
2022-08-17T03:49:31.463Z,17.55
2022-08-17T03:52:52.042Z,17.55
2022-08-17T03:56:13.299Z,17.51
2022-08-17T03:59:22.677Z,17.51
2022-08-17T04:02:29.111Z,17.52
2022-08-17T04:05:31.144Z,17.52
2022-08-17T04:08:36.243Z,17.51
2022-08-17T04:11:38.831Z,17.50
2022-08-17T04:14:52.827Z,17.52
2022-08-17T04:17:56.240Z,17.51
2022-08-17T04:20:57.964Z,17.51
2022-08-17T04:24:00.688Z,17.51
2022-08-17T04:27:02.440Z,17.52
2022-08-17T04:30:07.293Z,17.53
2022-08-17T04:33:14.086Z,17.56
2022-08-17T04:36:16.268Z,17.60
2022-08-17T04:39:18.050Z,17.62
2022-08-17T04:42:19.923Z,17.60
2022-08-17T04:45:22.073Z,17.63
2022-08-17T04:48:34.764Z,17.62
2022-08-17T04:51:54.536Z,17.65
2022-08-17T04:54:57.374Z,17.67
2022-08-17T04:57:59.265Z,17.69
2022-08-17T05:01:01.549Z,17.77
2022-08-17T05:04:33.119Z,17.84
2022-08-17T05:07:31.551Z,17.93
2022-08-17T05:10:37.351Z,18.03
2022-08-17T05:13:50.311Z,18.13
2022-08-17T05:16:52.244Z,18.20
2022-08-17T05:19:54.369Z,18.33
2022-08-17T05:23:00.314Z,18.43
2022-08-17T05:26:02.401Z,18.58
2022-08-17T05:29:04.190Z,18.69
2022-08-17T05:32:39.173Z,18.83
2022-08-17T05:35:37.789Z,18.99
2022-08-17T05:38:39.833Z,19.07
2022-08-17T05:41:41.611Z,19.13
2022-08-17T05:44:43.384Z,19.23
2022-08-17T05:47:46.920Z,19.32
2022-08-17T05:50:52.445Z,19.43
2022-08-17T05:54:22.247Z,19.55
2022-08-17T05:57:53.478Z,19.69
2022-08-17T06:01:09.218Z,19.81
2022-08-17T06:04:45.519Z,19.94
2022-08-17T06:08:02.913Z,20.10
2022-08-17T06:11:24.624Z,20.27
2022-08-17T06:14:54.376Z,20.40
2022-08-17T06:18:04.078Z,20.55
2022-08-17T06:21:11.677Z,20.70
2022-08-17T06:24:35.243Z,20.90
2022-08-17T06:27:53.702Z,21.02
2022-08-17T06:31:12.684Z,21.14
2022-08-17T06:34:15.161Z,21.25
2022-08-17T06:37:55.951Z,21.35
2022-08-17T06:41:06.440Z,21.49
2022-08-17T06:44:43.262Z,21.62
2022-08-17T06:47:53.239Z,21.78
2022-08-17T06:51:00.926Z,21.89
2022-08-17T06:54:06.529Z,21.94
2022-08-17T06:57:22.364Z,21.98
2022-08-17T07:00:29.616Z,21.96
2022-08-17T07:03:39.837Z,21.91
2022-08-17T07:06:47.148Z,21.84
2022-08-17T07:09:50.689Z,21.75
2022-08-17T07:13:00.906Z,21.65
2022-08-17T07:16:19.785Z,21.54
2022-08-17T07:19:25.728Z,21.47
2022-08-17T07:22:53.570Z,21.45
2022-08-17T07:26:09.238Z,21.47
2022-08-17T07:29:17.568Z,21.52
2022-08-17T07:32:31.538Z,21.64
2022-08-17T07:35:44.884Z,21.73
2022-08-17T07:38:57.729Z,21.87
2022-08-17T07:42:04.521Z,22.00
2022-08-17T07:45:28.662Z,22.13
2022-08-17T07:48:36.604Z,22.29
2022-08-17T07:51:45.850Z,22.53
2022-08-17T07:54:48.531Z,22.85
2022-08-17T07:57:57.457Z,23.25
2022-08-17T08:01:18.529Z,23.66
2022-08-17T08:05:01.450Z,24.03
2022-08-17T08:08:18.722Z,24.42
2022-08-17T08:11:35.853Z,24.75
2022-08-17T08:14:39.822Z,24.98
2022-08-17T08:17:57.632Z,25.24
2022-08-17T08:21:05.386Z,25.50
2022-08-17T08:24:31.459Z,25.79
2022-08-17T08:27:55.262Z,26.14
2022-08-17T08:31:24.359Z,26.55
2022-08-17T08:35:02.141Z,26.93
2022-08-17T08:38:43.199Z,27.19
2022-08-17T08:42:07.971Z,27.27
2022-08-17T08:45:23.664Z,27.36
2022-08-17T08:49:00.922Z,27.43
2022-08-17T08:52:09.223Z,27.44
2022-08-17T08:55:45.461Z,27.45
2022-08-17T08:59:25.464Z,27.52
2022-08-17T09:02:38.961Z,27.52
2022-08-17T09:05:56.372Z,27.51
2022-08-17T09:09:59.510Z,27.55
2022-08-17T09:13:39.109Z,27.65
2022-08-17T09:16:55.340Z,27.88
2022-08-17T09:20:27.319Z,27.95
2022-08-17T09:23:59.865Z,27.99
2022-08-17T09:27:52.921Z,28.01
2022-08-17T09:31:08.075Z,27.96
2022-08-17T09:34:22.304Z,27.98
2022-08-17T09:37:39.297Z,28.08
2022-08-17T09:41:11.336Z,28.18
2022-08-17T09:45:04.831Z,28.27
2022-08-17T09:48:27.613Z,28.48
2022-08-17T09:51:36.621Z,28.73
2022-08-17T09:54:42.414Z,29.03
2022-08-17T09:57:52.234Z,29.36
2022-08-17T10:01:22.726Z,29.77
2022-08-17T10:05:06.819Z,30.14
2022-08-17T10:08:18.030Z,30.32
2022-08-17T10:12:13.113Z,30.20
2022-08-17T10:15:22.602Z,29.86
2022-08-17T10:19:05.869Z,29.52
2022-08-17T10:22:38.924Z,29.34
2022-08-17T10:26:21.415Z,29.19
2022-08-17T10:29:49.603Z,29.01
2022-08-17T10:33:01.967Z,29.10
2022-08-17T10:36:17.777Z,29.23
2022-08-17T10:39:58.673Z,29.25
2022-08-17T10:43:02.533Z,29.32
2022-08-17T10:46:30.216Z,29.53
2022-08-17T10:49:37.967Z,29.83
2022-08-17T10:52:48.735Z,30.22
2022-08-17T10:56:19.473Z,30.56
2022-08-17T10:59:36.453Z,30.78
2022-08-17T11:02:55.380Z,30.88
2022-08-17T11:06:09.544Z,30.90
2022-08-17T11:09:36.741Z,30.87
2022-08-17T11:13:03.963Z,30.86
2022-08-17T11:16:38.376Z,30.72
2022-08-17T11:19:54.913Z,30.62
2022-08-17T11:23:02.952Z,30.58
2022-08-17T11:26:29.784Z,30.57
2022-08-17T11:30:05.405Z,30.62
2022-08-17T11:33:28.937Z,30.68
2022-08-17T11:36:53.361Z,30.71
2022-08-17T11:40:17.313Z,30.72
2022-08-17T11:43:43.054Z,30.75
2022-08-17T11:47:30.117Z,30.83
2022-08-17T11:51:03.737Z,30.85
2022-08-17T11:54:42.324Z,30.77
2022-08-17T11:57:46.248Z,30.65
2022-08-17T12:00:53.159Z,30.62
2022-08-17T12:04:19.786Z,30.75
2022-08-17T12:07:23.349Z,30.86
2022-08-17T12:10:32.351Z,31.07
2022-08-17T12:13:49.151Z,31.29
2022-08-17T12:17:06.626Z,31.50
2022-08-17T12:20:38.567Z,31.62
2022-08-17T12:23:58.221Z,31.61
2022-08-17T12:27:04.323Z,31.65
2022-08-17T12:30:12.119Z,31.77
2022-08-17T12:33:25.665Z,31.90
2022-08-17T12:36:32.814Z,32.12
2022-08-17T12:39:35.478Z,32.25
2022-08-17T12:42:40.398Z,32.43
2022-08-17T12:45:42.549Z,32.46
2022-08-17T12:48:58.898Z,32.38
2022-08-17T12:52:11.512Z,32.21
2022-08-17T12:55:22.519Z,32.10
2022-08-17T12:58:31.859Z,31.99
2022-08-17T13:01:35.142Z,31.93
2022-08-17T13:04:40.064Z,31.91
2022-08-17T13:07:46.790Z,31.82
2022-08-17T13:11:09.915Z,31.69
2022-08-17T13:14:12.101Z,31.72
2022-08-17T13:17:26.883Z,31.77
2022-08-17T13:20:29.387Z,31.96
2022-08-17T13:23:32.271Z,32.17
2022-08-17T13:26:46.311Z,32.35
2022-08-17T13:29:59.544Z,32.40
2022-08-17T13:33:04.942Z,32.39
2022-08-17T13:36:08.817Z,32.44
2022-08-17T13:39:14.119Z,32.37
2022-08-17T13:42:48.085Z,32.24
2022-08-17T13:46:09.176Z,32.12
2022-08-17T13:49:18.080Z,32.03
2022-08-17T13:52:39.560Z,31.86
2022-08-17T13:55:48.847Z,31.66
2022-08-17T13:59:02.763Z,31.44
2022-08-17T14:02:07.229Z,31.16
2022-08-17T14:05:09.212Z,30.85
2022-08-17T14:08:15.588Z,30.46
2022-08-17T14:11:18.388Z,29.99
2022-08-17T14:14:23.161Z,29.43
2022-08-17T14:17:26.913Z,28.21
2022-08-17T14:20:29.067Z,26.31
2022-08-17T14:23:35.179Z,24.73
2022-08-17T14:26:37.077Z,23.89
2022-08-17T14:29:41.252Z,23.10
2022-08-17T14:32:45.420Z,22.74
2022-08-17T14:35:47.257Z,22.51
2022-08-17T14:38:49.470Z,22.41
2022-08-17T14:41:53.059Z,22.31
2022-08-17T14:44:55.873Z,22.09
2022-08-17T14:47:57.820Z,22.02
2022-08-17T14:50:59.776Z,22.18
2022-08-17T14:54:01.671Z,22.27
2022-08-17T14:57:23.283Z,22.28
2022-08-17T15:00:26.880Z,21.98
2022-08-17T15:03:28.780Z,21.59
2022-08-17T15:06:30.575Z,21.41
2022-08-17T15:09:33.585Z,21.35
2022-08-17T15:12:39.427Z,21.27
2022-08-17T15:15:42.293Z,21.06
2022-08-17T15:18:44.191Z,20.86
2022-08-17T15:21:47.152Z,20.88
2022-08-17T15:24:48.917Z,20.86
2022-08-17T15:27:51.138Z,20.86
2022-08-17T15:30:53.317Z,20.86
2022-08-17T15:33:55.300Z,20.94
2022-08-17T15:36:57.126Z,20.91
2022-08-17T15:40:00.777Z,21.04
2022-08-17T15:43:12.944Z,21.21
2022-08-17T15:46:20.951Z,21.70
2022-08-17T15:49:23.152Z,22.44
2022-08-17T15:52:30.171Z,22.98
2022-08-17T15:55:33.469Z,23.32
2022-08-17T15:58:36.901Z,23.65
2022-08-17T16:03:13.157Z,23.92
2022-08-17T16:05:11.118Z,24.43
2022-08-17T16:08:20.687Z,25.29
2022-08-17T16:11:23.470Z,26.08
2022-08-17T16:14:30.247Z,26.50
2022-08-17T16:17:39.867Z,26.82
2022-08-17T16:20:42.757Z,27.11
2022-08-17T16:23:44.491Z,27.31
2022-08-17T16:26:46.290Z,27.36
2022-08-17T16:29:49.814Z,27.48
2022-08-17T16:32:59.811Z,27.79
2022-08-17T16:36:01.600Z,28.19
2022-08-17T16:39:04.796Z,28.48
2022-08-17T16:42:24.501Z,28.87
2022-08-17T16:45:31.376Z,29.07
2022-08-17T16:48:33.072Z,29.20
2022-08-17T16:51:35.719Z,29.29
2022-08-17T16:54:40.555Z,29.30
2022-08-17T16:57:47.534Z,29.29
2022-08-17T17:00:52.281Z,29.19
2022-08-17T17:03:58.472Z,29.05
2022-08-17T17:07:25.862Z,28.90
2022-08-17T17:10:57.525Z,28.71
2022-08-17T17:14:04.406Z,28.39
2022-08-17T17:17:34.177Z,27.79
2022-08-17T17:20:42.650Z,27.59
2022-08-17T17:24:00.463Z,27.47
2022-08-17T17:27:47.369Z,27.42
2022-08-17T17:30:52.548Z,27.38
2022-08-17T17:34:03.985Z,27.13
2022-08-17T17:37:12.556Z,26.56
2022-08-17T17:40:32.971Z,25.94
2022-08-17T17:43:40.551Z,25.38
2022-08-17T17:46:46.950Z,24.85
2022-08-17T17:49:49.504Z,24.40
2022-08-17T17:53:35.207Z,23.99
2022-08-17T17:56:55.265Z,23.68
2022-08-17T18:00:12.870Z,23.42
2022-08-17T18:03:42.719Z,23.18
2022-08-17T18:07:22.871Z,23.00
2022-08-17T18:10:37.171Z,22.83
2022-08-17T18:14:20.670Z,22.71
2022-08-17T18:17:23.779Z,22.67
2022-08-17T18:20:35.941Z,22.66
2022-08-17T18:23:56.099Z,22.68
2022-08-17T18:27:01.018Z,22.66
2022-08-17T18:30:27.391Z,22.56
2022-08-17T18:33:29.216Z,22.46
2022-08-17T18:36:39.900Z,22.32
2022-08-17T18:39:41.708Z,22.20
2022-08-17T18:42:58.408Z,22.05
2022-08-17T18:46:17.229Z,21.89
2022-08-17T18:49:30.780Z,21.78
2022-08-17T18:52:34.100Z,21.66
2022-08-17T18:55:38.071Z,21.56
2022-08-17T18:58:40.279Z,21.48
2022-08-17T19:02:10.175Z,21.41
2022-08-17T19:05:27.441Z,21.33
2022-08-17T19:08:29.234Z,21.25
2022-08-17T19:11:35.407Z,21.17
2022-08-17T19:14:37.379Z,21.06
2022-08-17T19:17:48.348Z,21.03
2022-08-17T19:21:09.929Z,21.00
2022-08-17T19:24:19.292Z,20.94
2022-08-17T19:27:25.616Z,20.94
2022-08-17T19:30:37.072Z,20.84
2022-08-17T19:33:43.728Z,20.80
2022-08-17T19:37:25.590Z,20.80
2022-08-17T19:40:52.869Z,20.75
2022-08-17T19:44:32.808Z,20.71
2022-08-17T19:47:53.897Z,20.65
2022-08-17T19:51:11.287Z,20.61
2022-08-17T19:54:40.601Z,20.57
2022-08-17T19:57:58.321Z,20.58
2022-08-17T20:01:00.301Z,20.58
2022-08-17T20:04:39.397Z,20.53
2022-08-17T20:07:44.678Z,20.48
2022-08-17T20:10:54.954Z,20.41
2022-08-17T20:14:21.956Z,20.41
2022-08-17T20:17:37.859Z,20.46
2022-08-17T20:21:00.020Z,20.52
2022-08-17T20:24:40.426Z,20.52
2022-08-17T20:28:03.835Z,20.46
2022-08-17T20:31:49.963Z,20.38
2022-08-17T20:35:39.993Z,20.29
2022-08-17T20:38:43.493Z,20.20
2022-08-17T20:42:12.509Z,20.09
2022-08-17T20:45:26.590Z,20.02
2022-08-17T20:48:38.689Z,19.96
2022-08-17T20:52:01.324Z,19.92
2022-08-17T20:55:04.392Z,19.87
2022-08-17T20:58:15.150Z,19.85
2022-08-17T21:01:24.365Z,19.80
2022-08-17T21:04:50.561Z,19.74
2022-08-17T21:07:58.100Z,19.71
2022-08-17T21:11:20.968Z,19.68
2022-08-17T21:15:07.881Z,19.65
2022-08-17T21:18:40.321Z,19.66
2022-08-17T21:21:59.153Z,19.59
2022-08-17T21:25:14.734Z,19.55
2022-08-17T21:29:00.997Z,19.48
2022-08-17T21:32:03.259Z,19.40
2022-08-17T21:35:11.101Z,19.34
2022-08-17T21:38:14.503Z,19.28
2022-08-17T21:41:58.240Z,19.23
2022-08-17T21:45:19.993Z,19.16
2022-08-17T21:48:24.927Z,19.13
2022-08-17T21:51:29.074Z,19.09
2022-08-17T21:54:39.894Z,19.12
2022-08-17T21:57:52.906Z,19.11
2022-08-17T22:01:34.383Z,19.07
2022-08-17T22:04:39.285Z,19.07
2022-08-17T22:07:45.712Z,19.06
2022-08-17T22:10:51.258Z,19.04
2022-08-17T22:13:55.312Z,19.04
2022-08-17T22:17:11.066Z,18.99
2022-08-17T22:20:22.090Z,18.96
2022-08-17T22:23:51.150Z,18.92
2022-08-17T22:27:13.058Z,18.90
2022-08-17T22:30:20.041Z,18.86
2022-08-17T22:33:44.661Z,18.79
2022-08-17T22:36:46.329Z,18.76
2022-08-17T22:39:57.832Z,18.71
2022-08-17T22:43:03.584Z,18.68
2022-08-17T22:46:08.668Z,18.65
2022-08-17T22:49:10.493Z,18.63
2022-08-17T22:53:02.119Z,18.62
2022-08-17T22:56:23.590Z,18.62
2022-08-17T22:59:42.516Z,18.64
2022-08-17T23:03:06.447Z,18.63
2022-08-17T23:06:11.187Z,18.61
2022-08-17T23:09:12.955Z,18.66
2022-08-17T23:12:18.418Z,18.68
2022-08-17T23:15:20.254Z,18.70
2022-08-17T23:18:23.545Z,18.71
2022-08-17T23:21:29.757Z,18.76
2022-08-17T23:24:37.768Z,18.81
2022-08-17T23:27:41.762Z,18.83
2022-08-17T23:30:46.651Z,18.82
2022-08-17T23:33:49.693Z,18.76
2022-08-17T23:36:52.420Z,18.68
2022-08-17T23:39:54.695Z,18.67
2022-08-17T23:42:57.993Z,18.71
2022-08-17T23:46:03.964Z,18.72
2022-08-17T23:49:06.663Z,18.80
2022-08-17T23:52:12.477Z,18.88
2022-08-17T23:55:17.111Z,18.91
2022-08-17T23:58:19.063Z,18.87
